Terminal Aerodrome Forecast
Issued by NWS Sterling, VA

Current Version | Previous Version | Text Only | Print | Product List | Glossary Off
Versions: 1 2 3 4 5 6 7 8 9 10 11 12 13 14

000
FTUS41 KLWX 291120
TAFMRB
TAF
KMRB 291120Z 2912/3012 VRB04KT P6SM FEW150
     FM291900 01007KT P6SM VCTS BKN060CB
     FM300000 VRB03KT P6SM SCT070=

USA.gov is the U.S. government's official web portal to all federal, state and local government web resources and services.